sensor_id;sensor_type;location;lat;lon;timestamp;temperature;humidity
27633;DHT22;15046;50.930;13.334;2022-07-29T00:00:05;17.10;63.10
27633;DHT22;15046;50.930;13.334;2022-07-29T00:02:31;17.10;63.70
27633;DHT22;15046;50.930;13.334;2022-07-29T00:04:57;17.10;64.00
27633;DHT22;15046;50.930;13.334;2022-07-29T00:07:23;17.10;64.20
27633;DHT22;15046;50.930;13.334;2022-07-29T00:09:50;17.00;64.20
27633;DHT22;15046;50.930;13.334;2022-07-29T00:12:16;17.00;64.20
27633;DHT22;15046;50.930;13.334;2022-07-29T00:14:42;17.00;64.30
27633;DHT22;15046;50.930;13.334;2022-07-29T00:17:07;17.00;64.50
27633;DHT22;15046;50.930;13.334;2022-07-29T00:19:33;17.00;64.60
27633;DHT22;15046;50.930;13.334;2022-07-29T00:22:01;17.10;64.70
27633;DHT22;15046;50.930;13.334;2022-07-29T00:24:27;17.10;64.70
27633;DHT22;15046;50.930;13.334;2022-07-29T00:26:53;17.00;64.70
27633;DHT22;15046;50.930;13.334;2022-07-29T00:29:19;17.10;64.90
27633;DHT22;15046;50.930;13.334;2022-07-29T00:31:45;17.10;65.00
27633;DHT22;15046;50.930;13.334;2022-07-29T00:34:11;17.10;65.20
27633;DHT22;15046;50.930;13.334;2022-07-29T00:36:56;17.10;65.20
27633;DHT22;15046;50.930;13.334;2022-07-29T00:39:21;17.10;65.30
27633;DHT22;15046;50.930;13.334;2022-07-29T00:41:48;17.10;65.70
27633;DHT22;15046;50.930;13.334;2022-07-29T00:44:14;17.10;65.90
27633;DHT22;15046;50.930;13.334;2022-07-29T00:46:40;17.10;66.00
27633;DHT22;15046;50.930;13.334;2022-07-29T00:49:06;17.10;66.10
27633;DHT22;15046;50.930;13.334;2022-07-29T00:51:38;17.10;66.00
27633;DHT22;15046;50.930;13.334;2022-07-29T00:54:05;17.10;65.90
27633;DHT22;15046;50.930;13.334;2022-07-29T00:56:32;17.10;65.90
27633;DHT22;15046;50.930;13.334;2022-07-29T00:58:59;17.00;65.80
27633;DHT22;15046;50.930;13.334;2022-07-29T01:01:25;17.00;66.10
27633;DHT22;15046;50.930;13.334;2022-07-29T01:03:51;17.00;66.40
27633;DHT22;15046;50.930;13.334;2022-07-29T01:06:18;17.00;66.70
27633;DHT22;15046;50.930;13.334;2022-07-29T01:08:45;17.00;66.50
27633;DHT22;15046;50.930;13.334;2022-07-29T01:11:13;17.00;66.80
27633;DHT22;15046;50.930;13.334;2022-07-29T01:13:39;16.90;66.90
27633;DHT22;15046;50.930;13.334;2022-07-29T01:16:18;17.00;67.10
27633;DHT22;15046;50.930;13.334;2022-07-29T01:18:47;16.90;67.30
27633;DHT22;15046;50.930;13.334;2022-07-29T01:27:02;16.80;67.80
27633;DHT22;15046;50.930;13.334;2022-07-29T01:29:54;16.80;67.90
27633;DHT22;15046;50.930;13.334;2022-07-29T01:32:26;16.70;68.10
27633;DHT22;15046;50.930;13.334;2022-07-29T01:37:55;16.60;68.10
27633;DHT22;15046;50.930;13.334;2022-07-29T01:40:27;16.60;68.60
27633;DHT22;15046;50.930;13.334;2022-07-29T01:43:00;16.50;68.70
27633;DHT22;15046;50.930;13.334;2022-07-29T01:45:46;16.50;69.00
27633;DHT22;15046;50.930;13.334;2022-07-29T01:48:18;16.50;69.30
27633;DHT22;15046;50.930;13.334;2022-07-29T01:50:58;16.40;69.20
27633;DHT22;15046;50.930;13.334;2022-07-29T01:53:32;16.40;69.20
27633;DHT22;15046;50.930;13.334;2022-07-29T01:56:00;16.30;69.60
27633;DHT22;15046;50.930;13.334;2022-07-29T01:58:28;16.30;69.90
27633;DHT22;15046;50.930;13.334;2022-07-29T02:00:57;16.30;70.10
27633;DHT22;15046;50.930;13.334;2022-07-29T02:03:24;16.30;70.00
27633;DHT22;15046;50.930;13.334;2022-07-29T02:05:52;16.30;70.10
27633;DHT22;15046;50.930;13.334;2022-07-29T02:08:19;16.30;70.30
27633;DHT22;15046;50.930;13.334;2022-07-29T02:10:47;16.20;70.40
27633;DHT22;15046;50.930;13.334;2022-07-29T02:13:15;16.20;70.60
27633;DHT22;15046;50.930;13.334;2022-07-29T02:15:42;16.20;70.70
27633;DHT22;15046;50.930;13.334;2022-07-29T02:18:16;16.20;70.90
27633;DHT22;15046;50.930;13.334;2022-07-29T02:20:49;16.20;71.00
27633;DHT22;15046;50.930;13.334;2022-07-29T02:23:19;16.20;71.00
27633;DHT22;15046;50.930;13.334;2022-07-29T02:25:51;16.10;71.10
27633;DHT22;15046;50.930;13.334;2022-07-29T02:28:19;16.10;71.40
27633;DHT22;15046;50.930;13.334;2022-07-29T02:30:46;16.10;71.30
27633;DHT22;15046;50.930;13.334;2022-07-29T02:33:14;16.10;71.30
27633;DHT22;15046;50.930;13.334;2022-07-29T02:35:43;16.10;71.60
27633;DHT22;15046;50.930;13.334;2022-07-29T02:38:15;16.10;71.90
27633;DHT22;15046;50.930;13.334;2022-07-29T02:41:04;16.10;71.50
27633;DHT22;15046;50.930;13.334;2022-07-29T02:43:32;16.10;71.30
27633;DHT22;15046;50.930;13.334;2022-07-29T02:46:00;16.10;71.10
27633;DHT22;15046;50.930;13.334;2022-07-29T02:48:36;16.10;70.90
27633;DHT22;15046;50.930;13.334;2022-07-29T02:51:10;16.10;71.40
27633;DHT22;15046;50.930;13.334;2022-07-29T02:53:38;16.10;71.30
27633;DHT22;15046;50.930;13.334;2022-07-29T02:56:10;16.10;71.10
27633;DHT22;15046;50.930;13.334;2022-07-29T02:58:40;16.20;71.30
27633;DHT22;15046;50.930;13.334;2022-07-29T03:01:20;16.10;71.50
27633;DHT22;15046;50.930;13.334;2022-07-29T03:03:46;16.10;72.00
27633;DHT22;15046;50.930;13.334;2022-07-29T03:06:15;16.10;71.60
27633;DHT22;15046;50.930;13.334;2022-07-29T03:08:43;16.10;71.70
27633;DHT22;15046;50.930;13.334;2022-07-29T03:11:10;16.10;71.90
27633;DHT22;15046;50.930;13.334;2022-07-29T03:13:36;16.10;72.20
27633;DHT22;15046;50.930;13.334;2022-07-29T03:16:03;16.00;72.40
27633;DHT22;15046;50.930;13.334;2022-07-29T03:18:30;16.00;72.50
27633;DHT22;15046;50.930;13.334;2022-07-29T03:20:56;16.00;72.80
27633;DHT22;15046;50.930;13.334;2022-07-29T03:23:23;15.90;72.90
27633;DHT22;15046;50.930;13.334;2022-07-29T03:25:51;15.90;73.30
27633;DHT22;15046;50.930;13.334;2022-07-29T03:28:17;15.90;73.50
27633;DHT22;15046;50.930;13.334;2022-07-29T03:30:43;16.00;73.60
27633;DHT22;15046;50.930;13.334;2022-07-29T03:33:09;15.90;73.70
27633;DHT22;15046;50.930;13.334;2022-07-29T03:35:34;15.90;73.70
27633;DHT22;15046;50.930;13.334;2022-07-29T03:38:00;15.90;73.80
27633;DHT22;15046;50.930;13.334;2022-07-29T03:40:44;15.90;73.80
27633;DHT22;15046;50.930;13.334;2022-07-29T03:43:13;15.90;74.00
27633;DHT22;15046;50.930;13.334;2022-07-29T03:45:44;15.90;74.20
27633;DHT22;15046;50.930;13.334;2022-07-29T03:48:13;15.90;74.30
27633;DHT22;15046;50.930;13.334;2022-07-29T03:50:41;15.90;74.60
27633;DHT22;15046;50.930;13.334;2022-07-29T03:53:08;15.90;74.80
27633;DHT22;15046;50.930;13.334;2022-07-29T03:55:41;15.90;75.00
27633;DHT22;15046;50.930;13.334;2022-07-29T03:58:09;15.90;75.10
27633;DHT22;15046;50.930;13.334;2022-07-29T04:00:36;16.00;75.20
27633;DHT22;15046;50.930;13.334;2022-07-29T04:03:04;15.90;75.10
27633;DHT22;15046;50.930;13.334;2022-07-29T04:05:30;15.90;75.30
27633;DHT22;15046;50.930;13.334;2022-07-29T04:07:56;16.00;75.70
27633;DHT22;15046;50.930;13.334;2022-07-29T04:10:22;16.00;75.90
27633;DHT22;15046;50.930;13.334;2022-07-29T04:12:50;16.00;76.20
27633;DHT22;15046;50.930;13.334;2022-07-29T04:15:16;16.10;76.30
27633;DHT22;15046;50.930;13.334;2022-07-29T04:17:42;16.00;76.50
27633;DHT22;15046;50.930;13.334;2022-07-29T04:20:08;16.00;76.80
27633;DHT22;15046;50.930;13.334;2022-07-29T04:22:34;16.10;77.10
27633;DHT22;15046;50.930;13.334;2022-07-29T04:25:00;16.00;77.10
27633;DHT22;15046;50.930;13.334;2022-07-29T04:27:26;16.10;77.40
27633;DHT22;15046;50.930;13.334;2022-07-29T04:29:52;16.10;77.60
27633;DHT22;15046;50.930;13.334;2022-07-29T04:32:18;16.10;77.80
27633;DHT22;15046;50.930;13.334;2022-07-29T04:34:43;16.10;78.30
27633;DHT22;15046;50.930;13.334;2022-07-29T04:37:12;16.10;78.50
27633;DHT22;15046;50.930;13.334;2022-07-29T04:39:38;16.10;78.50
27633;DHT22;15046;50.930;13.334;2022-07-29T04:42:04;16.10;78.60
27633;DHT22;15046;50.930;13.334;2022-07-29T04:44:29;16.20;78.40
27633;DHT22;15046;50.930;13.334;2022-07-29T04:46:56;16.30;78.30
27633;DHT22;15046;50.930;13.334;2022-07-29T04:49:22;16.30;78.10
27633;DHT22;15046;50.930;13.334;2022-07-29T04:51:48;16.30;77.70
27633;DHT22;15046;50.930;13.334;2022-07-29T04:54:14;16.40;77.20
27633;DHT22;15046;50.930;13.334;2022-07-29T04:56:40;16.40;76.70
27633;DHT22;15046;50.930;13.334;2022-07-29T04:59:07;16.50;76.60
27633;DHT22;15046;50.930;13.334;2022-07-29T05:01:33;16.50;76.70
27633;DHT22;15046;50.930;13.334;2022-07-29T05:03:58;16.50;77.10
27633;DHT22;15046;50.930;13.334;2022-07-29T05:06:24;16.50;77.60
27633;DHT22;15046;50.930;13.334;2022-07-29T05:08:50;16.60;78.20
27633;DHT22;15046;50.930;13.334;2022-07-29T05:11:16;16.70;78.10
27633;DHT22;15046;50.930;13.334;2022-07-29T05:13:41;16.70;77.80
27633;DHT22;15046;50.930;13.334;2022-07-29T05:16:08;16.80;77.80
27633;DHT22;15046;50.930;13.334;2022-07-29T05:18:34;16.90;77.80
27633;DHT22;15046;50.930;13.334;2022-07-29T05:21:00;17.00;77.70
27633;DHT22;15046;50.930;13.334;2022-07-29T05:23:26;17.20;77.20
27633;DHT22;15046;50.930;13.334;2022-07-29T05:25:51;17.30;76.20
27633;DHT22;15046;50.930;13.334;2022-07-29T05:28:17;17.50;75.60
27633;DHT22;15046;50.930;13.334;2022-07-29T05:30:43;17.60;75.70
27633;DHT22;15046;50.930;13.334;2022-07-29T05:33:10;17.70;76.00
27633;DHT22;15046;50.930;13.334;2022-07-29T05:35:36;17.80;76.50
27633;DHT22;15046;50.930;13.334;2022-07-29T05:38:03;17.90;75.40
27633;DHT22;15046;50.930;13.334;2022-07-29T05:40:29;18.00;75.30
27633;DHT22;15046;50.930;13.334;2022-07-29T05:42:55;18.10;75.60
27633;DHT22;15046;50.930;13.334;2022-07-29T05:45:21;18.10;75.20
27633;DHT22;15046;50.930;13.334;2022-07-29T05:47:48;18.20;74.70
27633;DHT22;15046;50.930;13.334;2022-07-29T05:50:14;18.30;74.70
27633;DHT22;15046;50.930;13.334;2022-07-29T05:52:40;18.40;74.30
27633;DHT22;15046;50.930;13.334;2022-07-29T05:55:06;18.50;74.00
27633;DHT22;15046;50.930;13.334;2022-07-29T05:57:32;18.60;74.30
27633;DHT22;15046;50.930;13.334;2022-07-29T05:59:58;18.70;74.50
27633;DHT22;15046;50.930;13.334;2022-07-29T06:02:27;18.70;74.30
27633;DHT22;15046;50.930;13.334;2022-07-29T06:04:52;18.80;74.00
27633;DHT22;15046;50.930;13.334;2022-07-29T06:07:19;18.90;74.00
27633;DHT22;15046;50.930;13.334;2022-07-29T06:09:44;19.00;73.70
27633;DHT22;15046;50.930;13.334;2022-07-29T06:12:10;19.00;74.20
27633;DHT22;15046;50.930;13.334;2022-07-29T06:14:36;19.10;74.80
27633;DHT22;15046;50.930;13.334;2022-07-29T06:17:03;19.20;75.10
27633;DHT22;15046;50.930;13.334;2022-07-29T06:19:30;19.20;75.10
27633;DHT22;15046;50.930;13.334;2022-07-29T06:21:55;19.30;74.80
27633;DHT22;15046;50.930;13.334;2022-07-29T06:24:21;19.40;74.10
27633;DHT22;15046;50.930;13.334;2022-07-29T06:26:47;19.50;73.20
27633;DHT22;15046;50.930;13.334;2022-07-29T06:29:13;19.50;72.60
27633;DHT22;15046;50.930;13.334;2022-07-29T06:31:39;19.60;73.00
27633;DHT22;15046;50.930;13.334;2022-07-29T06:34:04;19.70;73.30
27633;DHT22;15046;50.930;13.334;2022-07-29T06:36:33;19.80;73.30
27633;DHT22;15046;50.930;13.334;2022-07-29T06:38:59;19.80;72.80
27633;DHT22;15046;50.930;13.334;2022-07-29T06:41:25;19.80;72.80
27633;DHT22;15046;50.930;13.334;2022-07-29T06:43:51;19.80;72.90
27633;DHT22;15046;50.930;13.334;2022-07-29T06:46:18;19.70;73.30
27633;DHT22;15046;50.930;13.334;2022-07-29T06:48:44;19.80;73.90
27633;DHT22;15046;50.930;13.334;2022-07-29T06:51:11;19.80;73.90
27633;DHT22;15046;50.930;13.334;2022-07-29T06:53:38;19.90;73.70
27633;DHT22;15046;50.930;13.334;2022-07-29T06:56:05;19.90;73.50
27633;DHT22;15046;50.930;13.334;2022-07-29T06:58:31;19.90;73.40
27633;DHT22;15046;50.930;13.334;2022-07-29T07:00:58;20.00;72.40
27633;DHT22;15046;50.930;13.334;2022-07-29T07:03:26;20.00;72.10
27633;DHT22;15046;50.930;13.334;2022-07-29T07:05:53;20.10;72.40
27633;DHT22;15046;50.930;13.334;2022-07-29T07:08:19;20.10;72.50
27633;DHT22;15046;50.930;13.334;2022-07-29T07:10:46;20.20;72.30
27633;DHT22;15046;50.930;13.334;2022-07-29T07:13:12;20.20;72.00
27633;DHT22;15046;50.930;13.334;2022-07-29T07:15:38;20.30;71.70
27633;DHT22;15046;50.930;13.334;2022-07-29T07:18:04;20.40;71.50
27633;DHT22;15046;50.930;13.334;2022-07-29T07:20:32;20.60;71.80
27633;DHT22;15046;50.930;13.334;2022-07-29T07:22:58;20.70;71.30
27633;DHT22;15046;50.930;13.334;2022-07-29T07:25:24;20.80;70.90
27633;DHT22;15046;50.930;13.334;2022-07-29T07:27:50;20.80;70.50
27633;DHT22;15046;50.930;13.334;2022-07-29T07:30:15;20.80;70.50
27633;DHT22;15046;50.930;13.334;2022-07-29T07:32:42;20.90;70.60
27633;DHT22;15046;50.930;13.334;2022-07-29T07:35:09;20.90;70.50
27633;DHT22;15046;50.930;13.334;2022-07-29T07:37:35;20.90;70.60
27633;DHT22;15046;50.930;13.334;2022-07-29T07:40:01;21.00;70.30
27633;DHT22;15046;50.930;13.334;2022-07-29T07:42:27;21.10;70.50
27633;DHT22;15046;50.930;13.334;2022-07-29T07:44:53;21.20;70.20
27633;DHT22;15046;50.930;13.334;2022-07-29T07:47:19;21.30;69.20
27633;DHT22;15046;50.930;13.334;2022-07-29T07:49:52;21.40;69.20
27633;DHT22;15046;50.930;13.334;2022-07-29T07:52:20;21.50;68.80
27633;DHT22;15046;50.930;13.334;2022-07-29T07:54:47;21.60;68.30
27633;DHT22;15046;50.930;13.334;2022-07-29T07:57:13;21.80;67.60
27633;DHT22;15046;50.930;13.334;2022-07-29T07:59:38;22.00;67.10
27633;DHT22;15046;50.930;13.334;2022-07-29T08:02:05;22.20;66.90
27633;DHT22;15046;50.930;13.334;2022-07-29T08:04:31;22.40;67.10
27633;DHT22;15046;50.930;13.334;2022-07-29T08:06:58;22.70;66.90
27633;DHT22;15046;50.930;13.334;2022-07-29T08:09:26;22.90;66.40
27633;DHT22;15046;50.930;13.334;2022-07-29T08:11:53;23.20;65.70
27633;DHT22;15046;50.930;13.334;2022-07-29T08:14:19;23.30;65.50
27633;DHT22;15046;50.930;13.334;2022-07-29T08:16:45;23.40;64.70
27633;DHT22;15046;50.930;13.334;2022-07-29T08:19:11;23.50;63.80
27633;DHT22;15046;50.930;13.334;2022-07-29T08:21:38;23.60;64.00
27633;DHT22;15046;50.930;13.334;2022-07-29T08:24:04;23.60;64.20
27633;DHT22;15046;50.930;13.334;2022-07-29T08:26:49;23.70;64.90
27633;DHT22;15046;50.930;13.334;2022-07-29T08:29:15;23.70;65.10
27633;DHT22;15046;50.930;13.334;2022-07-29T08:31:41;23.80;63.80
27633;DHT22;15046;50.930;13.334;2022-07-29T08:34:08;23.90;63.00
27633;DHT22;15046;50.930;13.334;2022-07-29T08:36:34;24.00;62.50
27633;DHT22;15046;50.930;13.334;2022-07-29T08:39:00;24.10;62.80
27633;DHT22;15046;50.930;13.334;2022-07-29T08:41:27;24.20;62.50
27633;DHT22;15046;50.930;13.334;2022-07-29T08:43:52;24.30;62.40
27633;DHT22;15046;50.930;13.334;2022-07-29T08:46:19;24.40;61.90
27633;DHT22;15046;50.930;13.334;2022-07-29T08:48:46;24.50;62.00
27633;DHT22;15046;50.930;13.334;2022-07-29T08:51:18;24.70;60.90
27633;DHT22;15046;50.930;13.334;2022-07-29T08:53:46;24.80;60.30
27633;DHT22;15046;50.930;13.334;2022-07-29T08:56:15;24.80;60.60
27633;DHT22;15046;50.930;13.334;2022-07-29T08:58:46;24.80;61.10
27633;DHT22;15046;50.930;13.334;2022-07-29T09:01:15;24.90;59.90
27633;DHT22;15046;50.930;13.334;2022-07-29T09:03:43;25.10;58.70
27633;DHT22;15046;50.930;13.334;2022-07-29T09:06:17;25.30;58.80
27633;DHT22;15046;50.930;13.334;2022-07-29T09:08:44;25.50;59.00
27633;DHT22;15046;50.930;13.334;2022-07-29T09:11:10;25.60;59.70
27633;DHT22;15046;50.930;13.334;2022-07-29T09:13:37;25.60;58.90
27633;DHT22;15046;50.930;13.334;2022-07-29T09:16:03;25.50;58.60
27633;DHT22;15046;50.930;13.334;2022-07-29T09:18:40;25.40;58.60
27633;DHT22;15046;50.930;13.334;2022-07-29T09:21:10;25.30;58.80
27633;DHT22;15046;50.930;13.334;2022-07-29T09:24:04;25.20;59.50
27633;DHT22;15046;50.930;13.334;2022-07-29T09:26:31;25.30;59.90
27633;DHT22;15046;50.930;13.334;2022-07-29T09:28:58;25.50;59.20
27633;DHT22;15046;50.930;13.334;2022-07-29T09:31:48;25.80;59.70
27633;DHT22;15046;50.930;13.334;2022-07-29T09:34:16;26.30;58.90
27633;DHT22;15046;50.930;13.334;2022-07-29T09:36:45;26.80;58.50
27633;DHT22;15046;50.930;13.334;2022-07-29T09:39:12;27.10;57.50
27633;DHT22;15046;50.930;13.334;2022-07-29T09:41:49;27.30;57.00
27633;DHT22;15046;50.930;13.334;2022-07-29T09:44:18;27.40;56.30
27633;DHT22;15046;50.930;13.334;2022-07-29T09:47:04;27.50;55.90
27633;DHT22;15046;50.930;13.334;2022-07-29T09:49:56;27.50;55.60
27633;DHT22;15046;50.930;13.334;2022-07-29T09:52:30;27.60;56.00
27633;DHT22;15046;50.930;13.334;2022-07-29T09:55:07;27.60;55.70
27633;DHT22;15046;50.930;13.334;2022-07-29T09:57:33;27.70;56.20
27633;DHT22;15046;50.930;13.334;2022-07-29T10:00:17;27.80;56.40
27633;DHT22;15046;50.930;13.334;2022-07-29T10:02:46;28.00;56.70
27633;DHT22;15046;50.930;13.334;2022-07-29T10:05:26;28.40;55.90
27633;DHT22;15046;50.930;13.334;2022-07-29T10:07:56;28.80;53.30
27633;DHT22;15046;50.930;13.334;2022-07-29T10:12:57;29.90;51.50
27633;DHT22;15046;50.930;13.334;2022-07-29T10:15:24;30.20;50.80
27633;DHT22;15046;50.930;13.334;2022-07-29T10:17:52;30.00;50.50
27633;DHT22;15046;50.930;13.334;2022-07-29T10:20:19;30.70;50.80
27633;DHT22;15046;50.930;13.334;2022-07-29T10:22:47;31.80;49.30
27633;DHT22;15046;50.930;13.334;2022-07-29T10:25:14;32.40;47.50
27633;DHT22;15046;50.930;13.334;2022-07-29T10:27:41;32.60;46.60
27633;DHT22;15046;50.930;13.334;2022-07-29T10:30:07;33.00;46.10
27633;DHT22;15046;50.930;13.334;2022-07-29T10:46:20;35.20;43.10
27633;DHT22;15046;50.930;13.334;2022-07-29T10:49:18;35.50;42.70
27633;DHT22;15046;50.930;13.334;2022-07-29T10:52:05;35.60;42.80
27633;DHT22;15046;50.930;13.334;2022-07-29T10:57:23;36.30;42.40
27633;DHT22;15046;50.930;13.334;2022-07-29T11:02:42;36.40;41.50
27633;DHT22;15046;50.930;13.334;2022-07-29T11:05:11;36.60;41.90
27633;DHT22;15046;50.930;13.334;2022-07-29T11:07:39;37.00;41.10
27633;DHT22;15046;50.930;13.334;2022-07-29T11:15:52;37.20;41.20
27633;DHT22;15046;50.930;13.334;2022-07-29T11:18:18;37.80;40.90
27633;DHT22;15046;50.930;13.334;2022-07-29T11:20:49;38.10;40.50
27633;DHT22;15046;50.930;13.334;2022-07-29T11:26:13;37.20;40.50
27633;DHT22;15046;50.930;13.334;2022-07-29T11:31:38;35.90;41.30
27633;DHT22;15046;50.930;13.334;2022-07-29T11:34:31;36.20;41.60
27633;DHT22;15046;50.930;13.334;2022-07-29T11:39:38;35.60;41.10
27633;DHT22;15046;50.930;13.334;2022-07-29T11:45:10;33.90;43.30
27633;DHT22;15046;50.930;13.334;2022-07-29T11:47:38;34.50;42.80
27633;DHT22;15046;50.930;13.334;2022-07-29T11:50:09;35.40;42.70
27633;DHT22;15046;50.930;13.334;2022-07-29T11:52:40;35.30;42.50
27633;DHT22;15046;50.930;13.334;2022-07-29T11:55:16;34.70;42.60
27633;DHT22;15046;50.930;13.334;2022-07-29T11:57:53;34.10;42.90
27633;DHT22;15046;50.930;13.334;2022-07-29T12:00:48;33.70;43.30
27633;DHT22;15046;50.930;13.334;2022-07-29T12:03:24;33.20;43.30
27633;DHT22;15046;50.930;13.334;2022-07-29T12:05:51;32.60;43.60
27633;DHT22;15046;50.930;13.334;2022-07-29T12:08:21;32.20;44.80
27633;DHT22;15046;50.930;13.334;2022-07-29T12:10:49;32.20;44.90
27633;DHT22;15046;50.930;13.334;2022-07-29T12:13:18;32.70;44.90
27633;DHT22;15046;50.930;13.334;2022-07-29T12:15:55;33.80;44.10
27633;DHT22;15046;50.930;13.334;2022-07-29T12:18:23;34.10;43.10
27633;DHT22;15046;50.930;13.334;2022-07-29T12:21:00;33.60;42.70
27633;DHT22;15046;50.930;13.334;2022-07-29T12:23:29;32.80;43.30
27633;DHT22;15046;50.930;13.334;2022-07-29T12:25:55;32.20;44.00
27633;DHT22;15046;50.930;13.334;2022-07-29T12:28:24;31.70;44.60
27633;DHT22;15046;50.930;13.334;2022-07-29T12:30:50;31.30;44.70
27633;DHT22;15046;50.930;13.334;2022-07-29T12:33:29;31.20;45.30
27633;DHT22;15046;50.930;13.334;2022-07-29T12:36:01;31.20;45.30
27633;DHT22;15046;50.930;13.334;2022-07-29T12:38:28;31.40;45.50
27633;DHT22;15046;50.930;13.334;2022-07-29T12:40:55;31.80;44.90
27633;DHT22;15046;50.930;13.334;2022-07-29T12:43:22;32.10;44.30
27633;DHT22;15046;50.930;13.334;2022-07-29T12:45:51;32.50;45.00
27633;DHT22;15046;50.930;13.334;2022-07-29T12:48:17;32.70;44.70
27633;DHT22;15046;50.930;13.334;2022-07-29T12:51:00;32.80;44.00
27633;DHT22;15046;50.930;13.334;2022-07-29T12:53:27;33.10;44.20
27633;DHT22;15046;50.930;13.334;2022-07-29T12:55:54;33.70;43.10
27633;DHT22;15046;50.930;13.334;2022-07-29T12:58:41;33.60;42.90
27633;DHT22;15046;50.930;13.334;2022-07-29T13:01:17;33.00;43.10
27633;DHT22;15046;50.930;13.334;2022-07-29T13:03:58;33.00;44.00
27633;DHT22;15046;50.930;13.334;2022-07-29T13:06:33;33.80;43.30
27633;DHT22;15046;50.930;13.334;2022-07-29T13:11:47;36.00;41.20
27633;DHT22;15046;50.930;13.334;2022-07-29T13:14:34;36.80;40.90
27633;DHT22;15046;50.930;13.334;2022-07-29T13:17:12;37.40;39.50
27633;DHT22;15046;50.930;13.334;2022-07-29T13:19:45;38.10;39.20
27633;DHT22;15046;50.930;13.334;2022-07-29T13:22:17;38.00;39.20
27633;DHT22;15046;50.930;13.334;2022-07-29T13:25:00;37.20;39.30
27633;DHT22;15046;50.930;13.334;2022-07-29T13:27:37;36.80;39.70
27633;DHT22;15046;50.930;13.334;2022-07-29T13:30:08;36.60;39.90
27633;DHT22;15046;50.930;13.334;2022-07-29T13:32:35;36.50;40.30
27633;DHT22;15046;50.930;13.334;2022-07-29T13:35:05;36.70;40.00
27633;DHT22;15046;50.930;13.334;2022-07-29T13:37:32;37.20;40.70
27633;DHT22;15046;50.930;13.334;2022-07-29T13:39:59;37.90;39.50
27633;DHT22;15046;50.930;13.334;2022-07-29T13:42:26;38.10;38.80
27633;DHT22;15046;50.930;13.334;2022-07-29T13:44:52;38.20;38.00
27633;DHT22;15046;50.930;13.334;2022-07-29T13:47:19;38.70;38.20
27633;DHT22;15046;50.930;13.334;2022-07-29T13:49:45;39.10;37.90
27633;DHT22;15046;50.930;13.334;2022-07-29T13:52:11;39.40;37.20
27633;DHT22;15046;50.930;13.334;2022-07-29T13:54:37;39.30;37.20
27633;DHT22;15046;50.930;13.334;2022-07-29T13:57:06;38.90;37.20
27633;DHT22;15046;50.930;13.334;2022-07-29T13:59:32;38.30;38.00
27633;DHT22;15046;50.930;13.334;2022-07-29T14:01:58;38.30;38.00
27633;DHT22;15046;50.930;13.334;2022-07-29T14:04:24;38.70;37.70
27633;DHT22;15046;50.930;13.334;2022-07-29T14:06:51;39.00;37.80
27633;DHT22;15046;50.930;13.334;2022-07-29T14:09:17;39.60;37.60
27633;DHT22;15046;50.930;13.334;2022-07-29T14:11:43;40.20;36.70
27633;DHT22;15046;50.930;13.334;2022-07-29T14:14:08;40.40;36.80
27633;DHT22;15046;50.930;13.334;2022-07-29T14:16:35;40.60;36.90
27633;DHT22;15046;50.930;13.334;2022-07-29T14:19:01;40.70;36.00
27633;DHT22;15046;50.930;13.334;2022-07-29T14:21:27;40.70;36.30
27633;DHT22;15046;50.930;13.334;2022-07-29T14:23:53;40.70;36.40
27633;DHT22;15046;50.930;13.334;2022-07-29T14:26:21;40.70;36.30
27633;DHT22;15046;50.930;13.334;2022-07-29T14:28:47;40.60;35.80
27633;DHT22;15046;50.930;13.334;2022-07-29T14:31:14;40.50;35.70
27633;DHT22;15046;50.930;13.334;2022-07-29T14:33:39;40.30;36.10
27633;DHT22;15046;50.930;13.334;2022-07-29T14:36:05;40.00;36.60
27633;DHT22;15046;50.930;13.334;2022-07-29T14:38:31;39.80;36.70
27633;DHT22;15046;50.930;13.334;2022-07-29T14:40:57;39.60;36.70
27633;DHT22;15046;50.930;13.334;2022-07-29T14:43:23;39.40;37.10
27633;DHT22;15046;50.930;13.334;2022-07-29T14:45:49;38.60;36.90
27633;DHT22;15046;50.930;13.334;2022-07-29T14:48:14;37.60;37.60
27633;DHT22;15046;50.930;13.334;2022-07-29T14:50:40;36.90;38.40
27633;DHT22;15046;50.930;13.334;2022-07-29T14:53:06;36.70;38.50
27633;DHT22;15046;50.930;13.334;2022-07-29T14:55:32;36.40;38.70
27633;DHT22;15046;50.930;13.334;2022-07-29T14:57:58;36.00;39.20
27633;DHT22;15046;50.930;13.334;2022-07-29T15:00:25;35.40;39.40
27633;DHT22;15046;50.930;13.334;2022-07-29T15:02:51;34.80;39.80
27633;DHT22;15046;50.930;13.334;2022-07-29T15:05:16;34.40;40.20
27633;DHT22;15046;50.930;13.334;2022-07-29T15:07:42;33.90;40.50
27633;DHT22;15046;50.930;13.334;2022-07-29T15:10:08;33.50;40.80
27633;DHT22;15046;50.930;13.334;2022-07-29T15:12:34;33.20;41.30
27633;DHT22;15046;50.930;13.334;2022-07-29T15:15:00;33.10;41.80
27633;DHT22;15046;50.930;13.334;2022-07-29T15:17:26;33.00;41.90
27633;DHT22;15046;50.930;13.334;2022-07-29T15:19:52;33.00;42.10
27633;DHT22;15046;50.930;13.334;2022-07-29T15:22:18;33.00;42.40
27633;DHT22;15046;50.930;13.334;2022-07-29T15:24:43;33.00;42.10
27633;DHT22;15046;50.930;13.334;2022-07-29T15:27:10;32.90;42.40
27633;DHT22;15046;50.930;13.334;2022-07-29T15:29:40;32.90;42.60
27633;DHT22;15046;50.930;13.334;2022-07-29T15:32:07;32.80;42.70
27633;DHT22;15046;50.930;13.334;2022-07-29T15:34:33;32.70;42.80
27633;DHT22;15046;50.930;13.334;2022-07-29T15:36:59;32.50;42.90
27633;DHT22;15046;50.930;13.334;2022-07-29T15:39:25;32.40;43.30
27633;DHT22;15046;50.930;13.334;2022-07-29T15:41:51;32.10;43.20
27633;DHT22;15046;50.930;13.334;2022-07-29T15:44:17;31.90;43.80
27633;DHT22;15046;50.930;13.334;2022-07-29T15:46:43;31.80;44.00
27633;DHT22;15046;50.930;13.334;2022-07-29T15:49:28;31.70;44.50
27633;DHT22;15046;50.930;13.334;2022-07-29T15:52:02;31.60;44.60
27633;DHT22;15046;50.930;13.334;2022-07-29T15:54:29;31.50;44.20
27633;DHT22;15046;50.930;13.334;2022-07-29T15:56:55;31.20;44.20
27633;DHT22;15046;50.930;13.334;2022-07-29T15:59:21;31.00;44.40
27633;DHT22;15046;50.930;13.334;2022-07-29T16:01:48;30.90;44.80
27633;DHT22;15046;50.930;13.334;2022-07-29T16:04:15;30.70;45.60
27633;DHT22;15046;50.930;13.334;2022-07-29T16:06:42;30.40;47.30
27633;DHT22;15046;50.930;13.334;2022-07-29T16:09:08;29.90;49.00
27633;DHT22;15046;50.930;13.334;2022-07-29T16:11:34;29.30;50.20
27633;DHT22;15046;50.930;13.334;2022-07-29T16:14:00;28.80;51.30